ADDS METAR Data INFO
IDs: Format: Raw Decoded Include TAF

Data at: 0454 UTC 23 May 2017

K66R 230435Z AUTO 04005KT 10SM OVC014 21/18 A2990 RMK AO2 T02060178
K66R 230415Z AUTO 02005KT 10SM OVC014 21/18 A2990 RMK AO2 T02050177
K66R 230355Z AUTO 01007KT 10SM OVC014 21/18 A2989 RMK AO2 T02050176
K66R 230335Z AUTO 02006KT 10SM OVC014 21/18 A2989 RMK AO2 T02070177
K66R 230315Z AUTO 36007KT 10SM OVC014 21/19 A2989 RMK AO2 T02110185
K66R 230255Z AUTO 02005KT 10SM BKN014 21/19 A2988 RMK AO2 T02120187
K66R 230235Z AUTO 02004KT 10SM CLR 21/19 A2988 RMK AO2 T02120187
K66R 230215Z AUTO 01004KT 10SM CLR 22/19 A2987 RMK AO2 T02150188
K66R 230155Z AUTO 01003KT 10SM CLR 22/19 A2987 RMK AO2 T02180192
K66R 230135Z AUTO 02004KT 10SM CLR 22/20 A2988 RMK AO2 T02210195
K66R 230115Z AUTO 01003KT 10SM CLR 23/20 A2988 RMK AO2 T02260195
K66R 230055Z AUTO 01004KT 10SM CLR 23/20 A2987 RMK AO2 T02300196
K66R 230035Z AUTO 02005KT 10SM SCT027 24/20 A2987 RMK AO2 T02360196
K66R 230015Z AUTO 04005KT 10SM BKN019 OVC027 24/20 A2987 RMK AO2 T02400200
K66R 222355Z AUTO 03005KT 10SM BKN019 OVC028 24/20 A2987 RMK AO2 LTG DSNT N T02420200 10252 20228
K66R 222335Z AUTO 04003KT 10SM SCT017 OVC028 24/20 A2987 RMK AO2 T02430201
K66R 222315Z AUTO 04004KT 10SM SCT017 OVC028 25/20 A2987 RMK AO2 T02450200
K66R 222255Z AUTO 05005KT 10SM SCT017 OVC028 24/20 A2988 RMK AO2 T02430198
K66R 222235Z AUTO 02004KT 10SM BKN015 OVC028 24/20 A2989 RMK AO2 T02400198
K66R 222215Z AUTO 04004KT 10SM SCT015 OVC028 24/20 A2989 RMK AO2 T02420200
K66R 222155Z AUTO 04003KT 10SM SCT013 BKN070 OVC080 24/20 A2990 RMK AO2 T02410199
K66R 222135Z AUTO 04006KT 10SM BKN013 OVC070 24/20 A2990 RMK AO2 T02400201
K66R 222115Z AUTO 02007KT 10SM OVC013 24/20 A2991 RMK AO2 T02370202
K66R 222055Z AUTO 36007KT 10SM BKN013 OVC070 24/21 A2991 RMK AO2 T02410206
K66R 222035Z AUTO 01007KT 10SM SCT015 BKN022 OVC070 24/20 A2992 RMK AO2 LTG DSNT E T02400203
K66R 222015Z AUTO 01006KT 10SM BKN018 OVC025 24/21 A2992 RMK AO2 T02430205
K66R 221955Z AUTO 02006KT 10SM BKN016 OVC022 25/21 A2992 RMK AO2 T02480206
K66R 221935Z AUTO 03006KT 10SM BKN015 BKN020 OVC075 25/21 A2993 RMK AO2 T02510208
K66R 221915Z AUTO 01008KT 330V040 10SM BKN013 BKN031 25/21 A2994 RMK AO2 T02490207
K66R 221855Z AUTO 03004KT 10SM BKN011 OVC022 24/21 A2995 RMK AO2 T02410205
K66R 221835Z AUTO 03006KT 10SM BKN009 OVC020 24/20 A2995 RMK AO2 T02380203
K66R 221815Z AUTO 01005KT 10SM OVC009 23/20 A2997 RMK AO2 T02300200
K66R 221755Z AUTO 01006KT 10SM OVC007 22/20 A2998 RMK AO2 60007 T02240200 10224 20192
K66R 221735Z AUTO 01006KT 10SM OVC007 22/20 A2999 RMK AO2 LTG DSNT S T02160195
K66R 221715Z AUTO 01008KT 10SM OVC005 21/19 A2999 RMK AO2 T02120193
K66R 221655Z AUTO 35007KT 10SM OVC005 21/19 A2999 RMK AO2 T02060193
K66R 221635Z AUTO 35007KT 10SM OVC005 20/19 A3000 RMK AO2 T02010191
K66R 221615Z AUTO 01006KT 10SM OVC005 20/19 A3000 RMK AO2 T01960187
K66R 221555Z AUTO 35007KT 10SM OVC003 20/19 A3000 RMK AO2 T01950186
K66R 221535Z AUTO 01004KT 4SM -DZ OVC003 20/19 A3000 RMK AO2 T01950185
K66R 221515Z AUTO 35007KT 10SM BKN003 OVC011 20/19 A3000 RMK AO2 T01950185
K66R 221455Z AUTO 34007KT 7SM RA BKN003 OVC010 20/19 A3000 RMK AO2 LTG DSNT SE P0001 60007 T01960187
K66R 221435Z AUTO 34008KT 10SM RA BKN003 OVC009 20/19 A2999 RMK AO2 T02010192
K66R 221415Z AUTO 34009KT 7SM BKN005 OVC009 22/21 A2998 RMK AO2 T02170208
K66R 221355Z AUTO 35006KT 5SM BR BKN005 OVC009 22/21 A2998 RMK AO2 T02200210
K66R 221335Z AUTO 35003KT 5SM BR OVC003 22/21 A2997 RMK AO2 T02170208
K66R 221315Z AUTO 00000KT 5SM BR OVC005 22/21 A2995 RMK AO2 LTG DSNT SW T02200211
K66R 221255Z AUTO 00000KT 5SM -RA OVC005 21/21 A2997 RMK AO2 P0006 T02140205
K66R 221235Z AUTO 00000KT 4SM -RA OVC005 21/20 A2998 RMK AO2 LTG DSNT SE P0006 T02100201
K66R 221215Z AUTO 00000KT 2 1/2SM RA OVC007 21/20 A2998 RMK AO2 P0004 T02120203
K66R 221155Z AUTO 00000KT 5SM -RA OVC007 21/20 A2999 RMK AO2 LTG DSNT S P0007 60007 70016 T02110202 10211 20202
K66R 221135Z AUTO 00000KT 7SM -RA OVC007 21/20 A2999 RMK AO2 LTG DSNT E AND S P0003 T02100200
K66R 221115Z AUTO 07003KT 5SM -RA OVC005 21/20 A2998 RMK AO2 LTG DSNT E AND SE P0001 T02080200
K66R 221055Z AUTO 00000KT 7SM -RA OVC007 21/20 A2997 RMK AO2 LTG DSNT SE THRU SW T02070197
K66R 221035Z AUTO 04004KT 10SM OVC007 21/20 A2997 RMK AO2 LTG DSNT S AND SW T02050195
K66R 221015Z AUTO 00000KT 10SM VCTS BKN007 OVC010 21/19 A2997 RMK AO2 LTG DSNT SW T02050193
K66R 220955Z AUTO 01003KT 10SM OVC014 20/19 A2997 RMK AO2 LTG DSNT SE THRU SW T02030192
K66R 220935Z AUTO 01004KT 10SM VCTS OVC016 20/19 A2998 RMK AO2 LTG DSNT SE AND SW T02020191
K66R 220915Z AUTO 02005KT 10SM VCTS OVC016 20/19 A2998 RMK AO2 LTG DSNT SE AND SW T02020191
K66R 220855Z AUTO 01005KT 10SM OVC016 20/19 A2999 RMK AO2 LTG DSNT SE AND SW T02020191
K66R 220835Z AUTO 36006KT 10SM SCT013 OVC020 20/19 A2999 RMK AO2 LTG DSNT S AND SW T02020191
K66R 220815Z AUTO 36005KT 10SM DZ SCT013 OVC022 20/19 A3000 RMK AO2 LTG DSNT SE THRU SW T02030192
K66R 220755Z AUTO 01003KT 10SM DZ BKN013 OVC020 21/19 A3001 RMK AO2 T02050192
K66R 220735Z AUTO 36003KT 10SM SCT015 OVC022 21/19 A3002 RMK AO2 T02050191
K66R 220715Z AUTO 36003KT 10SM OVC015 21/19 A3003 RMK AO2 T02050191
K66R 220655Z AUTO 01004KT 10SM -RA OVC015 21/19 A3002 RMK AO2 T02050192
K66R 220635Z AUTO 36004KT 10SM OVC017 21/20 A3003 RMK AO2 T02080195
K66R 220615Z AUTO 02004KT 10SM OVC020 21/20 A3002 RMK AO2 T02100196
K66R 220555Z AUTO 01003KT 10SM BKN022 OVC027 21/20 A3004 RMK AO2 60001 T02110196 10232 20210 403040210
K66R 220535Z AUTO 03003KT 10SM OVC026 21/20 A3004 RMK AO2 T02110196
K66R 220515Z AUTO 02006KT 10SM SCT020 OVC026 21/20 A3003 RMK AO2 T02100195
K66R 220455Z AUTO 01006KT 10SM OVC019 21/20 A3004 RMK AO2 T02140201
K66R 220435Z AUTO 35007KT 10SM OVC019 22/21 A3005 RMK AO2 T02180206
K66R 220415Z AUTO 01004KT 10SM OVC019 22/21 A3005 RMK AO2 LTG DSNT E AND SE T02200208
K66R 220355Z AUTO 36004KT 10SM BKN019 OVC034 22/21 A3006 RMK AO2 LTG DSNT SE T02210210
K66R 220335Z AUTO 00000KT 10SM SCT019 BKN034 22/21 A3008 RMK AO2 T02210210
K66R 220315Z AUTO 00000KT 10SM CLR 22/21 A3007 RMK AO2 T02220208
K66R 220255Z AUTO 00000KT 10SM CLR 22/21 A3003 RMK AO2 LTG DSNT N 60001 T02220208
K66R 220235Z AUTO 04003KT 10SM CLR 22/21 A3001 RMK AO2 LTG DSNT SE T02230208
K66R 220215Z AUTO 06004KT 10SM CLR 22/21 A3000 RMK AO2 LTG DSNT NE T02230208
K66R 220155Z AUTO 05007KT 10SM CLR 23/21 A2998 RMK AO2 LTG DSNT NE AND E T02250214
K66R 220135Z AUTO 05007KT 7SM CLR 23/22 A3000 RMK AO2 LTG DSNT N T02270218
K66R 220115Z AUTO 04004KT 7SM SCT020 SCT027 SCT055 23/22 A3002 RMK AO2 T02260217
K66R 220055Z AUTO 30005KT 7SM OVC018 23/22 A3004 RMK AO2 LTG DSNT E AND SW P0001 T02290218
K66R 220035Z AUTO 00000KT 10SM RA BKN018 OVC024 23/22 A3004 RMK AO2 LTG DSNT E AND NW P0001 T02310218
K66R 220015Z AUTO 36004KT 7SM RA BKN024 BKN043 BKN080 23/22 A3001 RMK AO2 LTG DSNT SW AND W T02280217
K66R 212355Z AUTO 00000KT 10SM SCT110 23/22 A3002 RMK AO2 LTG DSNT W 60008 T02270215 10304 20221
K66R 212335Z AUTO 34003KT 10SM CLR 23/21 A2998 RMK AO2 LTG DSNT E AND NW T02300214
K66R 212315Z AUTO 00000KT 10SM -TSRA CLR 23/21 A2997 RMK AO2 LTG DSNT W T02250213
K66R 212255Z AUTO 00000KT 10SM -DZ SCT065 SCT090 SCT110 23/21 A2998 RMK AO2 LTG DSNT W P0004 T02250211
K66R 212235Z AUTO 00000KT 7SM -RA SCT055 SCT065 OVC100 22/21 A2999 RMK AO2 LTG DSNT E P0004 T02230210
K66R 212215Z AUTO 00000KT 10SM RA SCT065 OVC100 22/21 A3001 RMK AO2 P0002 T02240208
K66R 212155Z AUTO 04003KT 10SM -TSRA BKN110 23/21 A2999 RMK AO2 LTG DSNT W AND NW T02290210
K66R 212135Z AUTO 34005KT 10SM VCTS SCT039 SCT065 SCT090 23/21 A2999 RMK AO2 LTG DSNT ALQS T02340212
K66R 212115Z AUTO 00000KT 10SM -VCTSRA SCT041 SCT050 SCT065 23/21 A3001 RMK AO2 LTG DSNT ALQS T02300207
K66R 212055Z AUTO 16005KT 4SM -TSRA SCT031 BKN050 OVC110 23/19 A2999 RMK AO2 LTG DSNT E THRU W P0004 60004 T02280193
K66R 212035Z AUTO 15007KT 10SM VCTS BKN031 BKN040 BKN048 26/17 A3002 RMK AO2 LTG DSNT ALQS T02590167
K66R 212015Z AUTO 05005KT 10SM VCTS BKN031 BKN120 30/22 A3000 RMK AO2 LTG DSNT E THRU SW T02970215
K66R 211955Z AUTO 05009KT 10SM VCTS BKN029 BKN035 30/22 A2998 RMK AO2 LTG DSNT ALQS T02980219
K66R 211935Z AUTO 05008KT 020V080 10SM VCTS BKN027 BKN033 30/22 A2999 RMK AO2 LTG DSNT SE THRU SW T02960218
K66R 211915Z AUTO 03005KT 10SM SCT023 29/22 A2999 RMK AO2 LTG DSNT E THRU SW T02920219
K66R 211855Z AUTO 01009KT 10SM BKN021 29/22 A2999 RMK AO2 LTG DSNT NE S AND SW T02870219
K66R 211835Z AUTO 02010G16KT 350V050 10SM SCT021 28/22 A3000 RMK AO2 LTG DSNT SW T02820219
K66R 211815Z AUTO 05006KT 10SM CLR 28/22 A3002 RMK AO2 LTG DSNT SW T02800219
K66R 211755Z AUTO 03005KT 10SM SCT014 27/22 A3002 RMK AO2 LTG DSNT E T02690217 10274 20217
K66R 211735Z AUTO 04009KT 10SM OVC012 26/22 A3003 RMK AO2 LTG DSNT E AND SW T02640218
K66R 211715Z AUTO 02006KT 7SM OVC012 25/22 A3005 RMK AO2 T02490215
K66R 211655Z AUTO 36008KT 10SM OVC012 25/22 A3006 RMK AO2 LTG DSNT E AND W T02500216


Page loaded:  04:54 UTC  |   09:54 PM Pacific  |   10:54 PM Mountain  |   11:54 PM Central  |   12:54 AM Eastern

 

ADVISORIES

FORECASTS

FORECASTS

OBSERVATIONS

USER TOOLS

ABOUT US